Forecasts are only available for sites displaying the forecast symbol.

Some water levels are actually in metres AHD (Australian Height Datum), click individual sites for more details.

Scroll for more >

River gauges, storages, and weirs in the Murray–Darling Basin

Type Locationsort descending River Water level Flow Volume Release Water temp Salinity Rainfall
River Gauge Albury (Union Bridge) Murray 1.67 m 26/01/2020 8:00 Not measured Not measured Not measured 21.9°C 26/01/2020 8:00 80.4 μS/cm 26/01/2020 8:00 Not measured Full data
River Gauge Balranald Murrumbidgee 1.7 m 26/01/2020 7:45 1279 ML/Day 26/01/2020 7:45 Not measured Not measured 24.5°C 26/01/2020 7:45 88.2 μS/cm 26/01/2020 7:45 Not measured Full data
River Gauge Bandiana Kiewa 0.83 m 26/01/2020 7:45 288 ML/Day 26/01/2020 7:45 Not measured Not measured 21.6°C 26/01/2020 7:45 39.5 μS/cm 26/01/2020 7:45 Not measured Full data
River Gauge Barmah Choke Murray 2.48 m 26/01/2020 7:45 7290 ML/Day 26/01/2020 7:45 Not measured Not measured Not measured Not measured Not measured Full data
River Gauge Biggara Murray 0.27 m 26/01/2020 8:00 212 ML/Day 26/01/2020 8:00 Not measured Not measured 18.7°C 26/01/2020 8:00 604.3 μS/cm 26/01/2020 8:00 0.0 mm 25/01/2020 9:00 Full data
River Gauge Bringenbrong Bridge Murray 1.17 m 26/01/2020 8:00 1913 ML/Day 26/01/2020 8:00 Not measured Not measured Not measured Not measured Not measured Full data
River Gauge Burtundy Darling 0.49 m 25/01/2020 7:45 0 ML/Day 25/01/2020 7:45 Not measured Not measured 22.7°C 26/01/2020 7:45 1157.8 μS/cm 3/09/2019 14:45 Not measured Full data
River Gauge Colemans Mitta 2.01 m 26/01/2020 7:45 3496 ML/Day 26/01/2020 7:45 Not measured Not measured 14.1°C 26/01/2020 7:45 37.0 μS/cm 26/01/2020 7:45 Not measured Full data
River Gauge Colignan Murray 2.27 m 26/01/2020 7:45 9125 ML/Day 26/01/2020 7:45 Not measured Not measured 24.7°C 26/01/2020 7:45 86.7 μS/cm 26/01/2020 7:45 Not measured Full data
River Gauge Corowa Murray 2.3 m 26/01/2020 8:00 9855 ML/Day 26/01/2020 8:00 Not measured Not measured 23.2°C 26/01/2020 8:00 46.9 μS/cm 26/01/2020 8:00 Not measured Full data
Storage Dartmouth Dam Mitta 449.95 m 26/01/2020 8:30 Not measured 1913 GL 26/01/2020 8:30 Not measured Not measured Not measured Not measured Full data
River Gauge Doctors Point Murray 2.67 m 26/01/2020 8:00 11085 ML/Day 26/01/2020 8:00 Not measured Not measured 22.0°C 26/01/2020 8:00 98.8 μS/cm 26/01/2020 8:00 Not measured Full data
River Gauge Echuca Wharf Murray 87.06 m 26/01/2020 6:45 Not measured Not measured Not measured Not measured Not measured Not measured Full data
River Gauge Edward Escape Wakool 0.95 m 26/01/2020 7:45 1261 ML/Day 26/01/2020 7:45 Not measured Not measured 23.8°C 26/01/2020 7:45 63.7 μS/cm 26/01/2020 7:45 Not measured Full data
River Gauge Edward River Offtake Murray 2.41 m 26/01/2020 8:00 1574 ML/Day 26/01/2020 8:00 Not measured Not measured 24.1°C 26/01/2020 8:00 44.2 μS/cm 26/01/2020 8:00 Not measured Full data
Weirs Euston Weir Downstream Murray 43.65 m 26/01/2020 7:45 10240 ML/Day 26/01/2020 7:45 Not measured Not measured 24.0°C 26/01/2020 7:45 75.6 μS/cm 26/01/2020 7:45 Not measured Full data
Weirs Euston Weir Upstream Murray 47.61 m 25/01/2020 8:00 Not measured 37 GL 25/01/2020 7:45 Not measured Not measured Not measured 0.0 mm 21/02/2019 9:00 Full data
River Gauge Flow to South Australia Murray Not measured Not measured Not measured 7755.5 ML/d24/01/2020 7:45 Not measured Not measured Not measured Full data
River Gauge Frenchman Creek Murray 27.42 m 24/01/2020 7:45 Not measured Not measured 1649.0 ML/d24/01/2020 7:45 Not measured Not measured Not measured Full data
River Gauge Gulpa Creek Offtake Murray 2.34 m 26/01/2020 7:45 251 ML/Day 26/01/2020 7:45 Not measured Not measured Not measured Not measured Not measured Full data
River Gauge Hinnomunjie Mitta 0.51 m 26/01/2020 7:45 203 ML/Day 26/01/2020 7:45 Not measured Not measured 19.1°C 26/01/2020 7:45 148.5 μS/cm 26/01/2020 7:45 0.0 mm 25/01/2020 9:00 Full data
Storage Hume Dam Murray 174.76 m 26/01/2020 8:00 Not measured 602 GL 26/01/2020 8:00 9950.0 ML/d26/01/2020 8:00 Not measured Not measured 0.0 mm 25/01/2020 9:00 Full data
River Gauge Jingellic Murray 1.31 m 26/01/2020 7:15 1993 ML/Day 26/01/2020 7:15 Not measured Not measured 24.3°C 31/12/2019 8:45 15.1 μS/cm 31/12/2019 8:45 0.0 mm 25/01/2020 9:00 Full data
River Gauge Kerang Loddon 0.36 m 26/01/2020 7:45 145 ML/Day 26/01/2020 7:45 Not measured Not measured 22.0°C 26/01/2020 7:45 89.8 μS/cm 26/01/2020 7:45 Not measured Full data
River Gauge Lake Albert Murray 0.73 m 26/01/2020 5:45 Not measured 268 GL 26/01/2020 5:45 Not measured Not measured Not measured Not measured Full data
River Gauge Lake Alexandrina Murray 0.57 m 26/01/2020 5:45 Not measured 1495 GL 26/01/2020 5:45 Not measured Not measured 916.8 μS/cm 26/01/2020 6:45 Not measured Full data
Storage Lake Victoria Murray 23.88 m 26/01/2020 6:45 Not measured 332 GL 26/01/2020 6:45 Not measured 20.9°C 26/01/2020 6:45 152.2 μS/cm 26/01/2020 6:45 Not measured Full data
Weirs Lock 1 Downstream Murray 0.63 m 26/01/2020 6:45 Not measured Not measured 4844.0 ML/d24/01/2020 7:45 Not measured Not measured Not measured Full data
Weirs Lock 1 Upstream Murray 3.25 m 26/01/2020 6:45 Not measured Not measured Not measured 22.8°C 26/01/2020 6:45 210.2 μS/cm 26/01/2020 6:45 Not measured Full data
Weirs Lock 2 Downstream Murray 3.4 m 26/01/2020 6:45 Not measured Not measured Not measured Not measured Not measured Not measured Full data
Weirs Lock 2 Upstream Murray 6.14 m 26/01/2020 6:45 Not measured Not measured Not measured 22.9°C 26/01/2020 6:45 195.7 μS/cm 26/01/2020 6:45 Not measured Full data
Weirs Lock 3 Downstream Murray 6.33 m 26/01/2020 6:45 Not measured Not measured Not measured Not measured Not measured Not measured Full data
Weirs Lock 3 Upstream Murray 9.84 m 26/01/2020 6:45 Not measured Not measured Not measured Not measured Not measured Not measured Full data
Weirs Lock 4 Downstream Murray 10.57 m 26/01/2020 6:45 Not measured Not measured Not measured Not measured Not measured Not measured Full data
Weirs Lock 4 Upstream Murray 13.24 m 26/01/2020 6:45 Not measured Not measured Not measured Not measured Not measured Not measured Full data
Weirs Lock 5 Downstream Murray 13.44 m 26/01/2020 6:45 Not measured Not measured Not measured Not measured Not measured Not measured Full data
Weirs Lock 5 Upstream Murray 16.32 m 26/01/2020 6:45 Not measured Not measured Not measured 23.3°C 26/01/2020 6:45 135.1 μS/cm 26/01/2020 6:45 Not measured Full data
Weirs Lock 6 Downstream Murray 16.44 m 26/01/2020 6:45 Not measured Not measured Not measured Not measured Not measured Not measured Full data
Weirs Lock 6 Upstream Murray 19.26 m 26/01/2020 6:45 Not measured Not measured Not measured 22.8°C 26/01/2020 6:45 133.0 μS/cm 26/01/2020 6:45 Not measured Full data
Weirs Lock 7 Downstream Murray 20.62 m 26/01/2020 6:45 Not measured Not measured Not measured Not measured Not measured Not measured Full data
Weirs Lock 7 Upstream Murray 21.59 m 26/01/2020 6:45 Not measured Not measured Not measured 24.1°C 26/01/2020 6:45 111.6 μS/cm 26/01/2020 6:45 Not measured Full data
Weirs Lock 8 Upstream Murray 23.61 m 26/01/2020 6:45 Not measured Not measured Not measured 23.9°C 26/01/2020 6:45 107.9 μS/cm 26/01/2020 6:45 Not measured Full data
Weirs Lock 9 Downstream Murray 23.77 m 26/01/2020 6:45 Not measured Not measured Not measured Not measured Not measured Not measured Full data
Weirs Lock 9 Upstream Murray 27.42 m 26/01/2020 6:45 Not measured Not measured Not measured 23.8°C 26/01/2020 6:45 102.8 μS/cm 26/01/2020 6:45 Not measured Full data
River Gauge McCoy Bridge Goulburn 1.75 m 26/01/2020 7:45 1414 ML/Day 26/01/2020 7:45 Not measured Not measured 23.7°C 26/01/2020 7:45 53.1 μS/cm 26/01/2020 7:45 Not measured Full data
Storage Menindee Lakes Darling Not measured Not measured 6 GL 24/01/2020 7:45 Not measured Not measured Not measured Not measured Full data
Weirs Mildura Weir downstream Murray 31.04 m 26/01/2020 7:45 Not measured Not measured Not measured 21.7°C 26/01/2020 7:45 74.7 μS/cm 26/01/2020 7:45 Not measured Full data
River Gauge Morgan Downstream Murray Not measured Not measured Not measured 3305.6 ML/d26/01/2020 6:45 Not measured 205.8 μS/cm 26/01/2020 3:45 Not measured Full data
River Gauge Mulwala Canal Murray Not measured Not measured Not measured 1599.5 ML/d26/01/2020 8:30 Not measured Not measured Not measured Full data
River Gauge Mundoo Barrage Murray 0.51 m 24/01/2020 7:45 Not measured Not measured Not measured Not measured Not measured Not measured Full data
River Gauge Murray Bridge Murray 0.56 m 26/01/2020 6:45 Not measured Not measured Not measured 21.9°C 26/01/2020 6:45 252.0 μS/cm 26/01/2020 6:45 Not measured Full data
River Gauge Peechelba Ovens 126.27 m 26/01/2020 7:45 335 ML/Day 26/01/2020 7:45 Not measured Not measured 24.5°C 26/01/2020 7:45 62.6 μS/cm 26/01/2020 7:45 Not measured Full data
River Gauge Pinegrove Murray 0.95 m 26/01/2020 8:00 135 ML/Day 26/01/2020 8:00 Not measured Not measured 21.0°C 26/01/2020 8:00 214.3 μS/cm 26/01/2020 8:00 0.0 mm 25/01/2020 9:00 Full data
River Gauge Redcliffs Murray Not measured Not measured Not measured Not measured Not measured 43.6 μS/cm 22/10/2019 13:45 Not measured Full data
River Gauge Rochester Campaspe 1.73 m 26/01/2020 7:45 93 ML/Day 26/01/2020 7:45 Not measured Not measured 22.6°C 26/01/2020 7:45 259.0 μS/cm 26/01/2020 7:45 0.0 mm 25/01/2020 9:00 Full data
River Gauge Rufus River Murray 20.74 m 24/01/2020 7:45 Not measured Not measured 2222.8 ML/d24/01/2020 7:45 Not measured 174.1 μS/cm 26/01/2020 7:00 Not measured Full data
Weirs Steven's Weir Downstream Edward 2.31 m 26/01/2020 7:45 2485 ML/Day 26/01/2020 7:45 Not measured Not measured 23.7°C 26/01/2020 7:45 54.5 μS/cm 26/01/2020 7:45 Not measured Full data
Weirs Steven's Weir Upstream Edward 4.51 m 26/01/2020 7:45 Not measured Not measured Not measured Not measured Not measured Not measured Full data
River Gauge Stoney Crossing Murray 1.39 m 26/01/2020 7:45 418 ML/Day 26/01/2020 7:45 Not measured 419.6 ML/d25/01/2020 7:45 24.1°C 26/01/2020 7:45 219.4 μS/cm 26/01/2020 7:45 Not measured Full data
River Gauge Swan Hill Murray 1.54 m 26/01/2020 7:45 8276 ML/Day 26/01/2020 7:45 Not measured Not measured 24.1°C 26/01/2020 7:45 69.5 μS/cm 26/01/2020 7:45 Not measured Full data
River Gauge Tallandoon Mitta 2.38 m 26/01/2020 7:45 4014 ML/Day 26/01/2020 7:45 Not measured Not measured 14.6°C 26/01/2020 7:45 43.5 μS/cm 26/01/2020 7:45 Not measured Full data
River Gauge Tauwitchere Barrage Murray 0.57 m 26/01/2020 6:45 Not measured Not measured Not measured Not measured Not measured Not measured Full data
River Gauge Tocumwal Murray 2.04 m 26/01/2020 7:45 8643 ML/Day 26/01/2020 7:45 Not measured Not measured 23.9°C 26/01/2020 7:45 42.6 μS/cm 26/01/2020 7:45 Not measured Full data
River Gauge Torrumbarry Headworks Murray 84.82 m 26/01/2020 7:45 Not measured Not measured 1452.1 ML/d26/01/2020 7:45 Not measured Not measured Not measured Full data
Weirs Torrumbarry Weir Downstream Murray 2.56 m 26/01/2020 7:45 7591 ML/Day 26/01/2020 7:45 Not measured Not measured 24.3°C 26/01/2020 7:45 59.0 μS/cm 26/01/2020 7:45 Not measured Full data
Weirs Torrumbarry Weir Upstream Murray 86.05 m 26/01/2020 7:30 Not measured 37 GL 26/01/2020 7:45 Not measured 24.3°C 26/01/2020 7:45 58.9 μS/cm 26/01/2020 5:45 0.0 mm 25/01/2020 9:00 Full data
River Gauge Wakool Canal Wakool 0.43 m 26/01/2020 7:45 Not measured Not measured 72.3 ML/d26/01/2020 8:30 Not measured Not measured Not measured Full data
River Gauge Wakool Junction Murray 3.48 m 26/01/2020 7:45 10311 ML/Day 26/01/2020 7:45 Not measured Not measured 23.8°C 26/01/2020 7:45 67.7 μS/cm 26/01/2020 7:45 Not measured Full data
River Gauge Weir 32 Upstream Darling 0.58 m 26/01/2020 7:45 1 ML/Day 26/01/2020 7:45 Not measured Not measured 22.9°C 26/01/2020 7:45 0.0 μS/cm 25/01/2020 17:45 Not measured Full data
Weirs Wentworth Weir Murray 27.72 m 26/01/2020 8:30 Not measured Not measured 7061.0 ML/d26/01/2020 8:30 Not measured 86.0 μS/cm 24/01/2020 7:45 0.0 mm 31/01/2019 9:00 Full data
River Gauge Wilcania Darling -0.27 m 26/01/2020 7:45 3 ML/Day 26/01/2020 7:45 Not measured Not measured 18.7°C 26/01/2020 7:45 0.0 μS/cm 26/01/2020 7:45 Not measured Full data
River Gauge Yarrawonga Main Channel Murray 123.12 m 26/01/2020 7:45 Not measured Not measured 405.8 ML/d26/01/2020 7:45 Not measured Not measured Not measured Full data
Weirs Yarrawonga Weir Downstream Murray 1.48 m 26/01/2020 8:00 8628 ML/Day 26/01/2020 8:00 Not measured Not measured 22.7°C 26/01/2020 8:00 89.1 μS/cm 26/01/2020 8:00 Not measured Full data
Weirs Yarrawonga Weir Upstream Murray 124.81 m 26/01/2020 8:30 Not measured Not measured Not measured Not measured Not measured 0.0 mm 26/01/2020 9:00 Full data